Time,TemperatureF,DewpointF,PressureIn,WindDirection,WindDirectionDegrees,WindSpeedMPH,WindSpeedGustMPH,Humidity,HourlyPrecipIn,Conditions,Clouds,dailyrainin,SoftwareType,DateUTC
2013-09-22 00:00:00,55.3,50.6,29.84,NNW,332,0.0,0.0,84,0.00,,CLR,0.00,VWS V14.01,2013-09-22 04:00:00,
2013-09-22 00:01:00,55.3,50.6,29.84,NNW,332,0.0,0.0,84,0.00,,CLR,0.00,VWS V14.01,2013-09-22 04:01:00,
2013-09-22 00:06:00,55.3,50.6,29.84,NNW,332,0.0,0.0,84,0.00,,CLR,0.00,VWS V14.01,2013-09-22 04:06:00,
2013-09-22 00:11:00,55.3,50.6,29.84,NNW,329,0.0,3.0,84,0.00,,CLR,0.00,VWS V14.01,2013-09-22 04:11:00,
2013-09-22 00:15:00,55.0,51.8,29.83,NNW,340,0.0,0.0,89,0.00,,CLR,1.22,VWS V14.01,2013-09-22 04:15:00,
2013-09-22 00:16:00,55.6,50.2,29.84,North,349,2.0,7.0,82,0.00,,CLR,0.00,VWS V14.01,2013-09-22 04:16:00,
2013-09-22 00:21:00,55.9,49.8,29.84,North,350,0.0,7.0,80,0.00,,CLR,0.00,VWS V14.01,2013-09-22 04:21:00,
2013-09-22 00:26:00,56.2,50.1,29.84,North,350,0.0,0.0,80,0.00,,CLR,0.00,VWS V14.01,2013-09-22 04:26:00,
2013-09-22 00:30:00,55.0,51.2,29.83,NNW,332,0.0,0.0,87,0.00,,CLR,1.22,VWS V14.01,2013-09-22 04:30:00,
2013-09-22 00:31:00,56.2,49.8,29.84,North,357,2.0,4.0,79,0.00,,CLR,0.00,VWS V14.01,2013-09-22 04:31:00,
2013-09-22 00:36:00,56.2,49.8,29.84,NNW,343,0.0,3.0,79,0.00,,CLR,0.00,VWS V14.01,2013-09-22 04:36:00,
2013-09-22 00:41:00,56.2,49.8,29.84,NNW,340,5.0,5.0,79,0.00,,CLR,0.00,VWS V14.01,2013-09-22 04:41:00,
2013-09-22 00:45:00,55.1,51.0,29.84,NNW,332,0.0,0.0,86,0.00,,CLR,1.22,VWS V14.01,2013-09-22 04:45:00,
2013-09-22 00:46:00,56.2,49.4,29.84,NW,319,0.0,6.0,78,0.00,,CLR,0.00,VWS V14.01,2013-09-22 04:46:00,
2013-09-22 00:51:00,56.0,49.2,29.84,North,349,2.0,7.0,78,0.00,,CLR,0.00,VWS V14.01,2013-09-22 04:51:00,
2013-09-22 00:56:00,56.0,49.2,29.84,NNW,340,0.0,7.0,78,0.00,,CLR,0.00,VWS V14.01,2013-09-22 04:56:00,
2013-09-22 01:00:00,55.3,50.9,29.84,NNW,332,0.0,0.0,85,0.00,,CLR,0.00,VWS V14.01,2013-09-22 05:00:00,
2013-09-22 01:01:00,55.9,49.2,29.84,NNW,336,1.0,6.0,78,0.00,,CLR,0.00,VWS V14.01,2013-09-22 05:01:00,
2013-09-22 01:06:00,55.7,49.0,29.84,North,357,0.0,5.0,78,0.00,,CLR,0.00,VWS V14.01,2013-09-22 05:06:00,
2013-09-22 01:11:00,55.6,48.9,29.84,NNW,329,1.0,5.0,78,0.00,,CLR,0.00,VWS V14.01,2013-09-22 05:11:00,
2013-09-22 01:15:00,55.4,50.3,29.84,NNW,332,0.0,3.0,83,0.00,,CLR,0.00,VWS V14.01,2013-09-22 05:15:00,
2013-09-22 01:16:00,55.6,48.9,29.84,NNW,337,0.0,6.0,78,0.00,,CLR,0.00,VWS V14.01,2013-09-22 05:16:00,
2013-09-22 01:21:00,55.4,49.0,29.84,NNW,340,3.0,6.0,79,0.00,,CLR,0.00,VWS V14.01,2013-09-22 05:21:00,
2013-09-22 01:26:00,55.3,48.9,29.84,NNW,339,3.0,5.0,79,0.00,,CLR,0.00,VWS V14.01,2013-09-22 05:26:00,
2013-09-22 01:30:00,56.2,49.8,29.84,NNW,336,0.0,4.0,79,0.00,,CLR,0.00,VWS V14.01,2013-09-22 05:30:00,
2013-09-22 01:31:00,55.1,48.7,29.85,NNW,344,0.0,5.0,79,0.00,,CLR,0.00,VWS V14.01,2013-09-22 05:31:00,
2013-09-22 01:36:00,55.1,48.7,29.85,North,349,0.0,5.0,79,0.00,,CLR,0.00,VWS V14.01,2013-09-22 05:36:00,
2013-09-22 01:41:00,55.0,48.6,29.85,NNW,342,0.0,5.0,79,0.00,,CLR,0.00,VWS V14.01,2013-09-22 05:41:00,
2013-09-22 01:45:00,56.2,49.8,29.84,NNW,346,4.0,6.0,79,0.00,,CLR,0.00,VWS V14.01,2013-09-22 05:45:00,
2013-09-22 01:46:00,54.8,48.8,29.85,NNW,342,0.0,5.0,80,0.00,,CLR,0.00,VWS V14.01,2013-09-22 05:46:00,
2013-09-22 01:52:00,54.7,48.7,29.85,NNW,342,0.0,0.0,80,0.00,,CLR,0.00,VWS V14.01,2013-09-22 05:52:00,
2013-09-22 01:57:00,54.4,48.4,29.85,NNW,342,0.0,0.0,80,0.00,,CLR,0.00,VWS V14.01,2013-09-22 05:57:00,
2013-09-22 02:00:00,56.0,49.2,29.84,NNW,344,2.0,6.0,78,0.00,,CLR,0.00,VWS V14.01,2013-09-22 06:00:00,
2013-09-22 02:02:00,54.2,48.5,29.86,NNW,342,0.0,0.0,81,0.00,,CLR,0.00,VWS V14.01,2013-09-22 06:02:00,
2013-09-22 02:07:00,54.1,48.4,29.86,NNW,342,0.0,0.0,81,0.00,,CLR,0.00,VWS V14.01,2013-09-22 06:07:00,
2013-09-22 02:12:00,53.9,48.2,29.86,NNW,342,0.0,0.0,81,0.00,,CLR,0.00,VWS V14.01,2013-09-22 06:12:00,
2013-09-22 02:15:00,55.6,48.9,29.84,NNW,337,0.0,6.0,78,0.00,,CLR,0.00,VWS V14.01,2013-09-22 06:15:00,
2013-09-22 02:17:00,53.6,48.2,29.85,NNW,342,0.0,0.0,82,0.00,,CLR,0.00,VWS V14.01,2013-09-22 06:17:00,
2013-09-22 02:22:00,53.5,48.2,29.85,NNW,342,0.0,0.0,82,0.00,,CLR,0.00,VWS V14.01,2013-09-22 06:22:00,
2013-09-22 02:27:00,53.3,48.3,29.85,NNW,342,0.0,0.0,83,0.00,,CLR,0.00,VWS V14.01,2013-09-22 06:27:00,
2013-09-22 02:30:00,55.3,48.9,29.85,North,350,0.0,5.0,79,0.00,,CLR,0.00,VWS V14.01,2013-09-22 06:30:00,
2013-09-22 02:32:00,53.2,48.2,29.85,NNW,342,0.0,0.0,83,0.00,,CLR,0.00,VWS V14.01,2013-09-22 06:32:00,
2013-09-22 02:37:00,52.9,48.2,29.85,NNW,342,0.0,0.0,84,0.00,,CLR,0.00,VWS V14.01,2013-09-22 06:37:00,
2013-09-22 02:42:00,52.8,48.1,29.85,NNW,342,0.0,0.0,84,0.00,,CLR,0.00,VWS V14.01,2013-09-22 06:42:00,
2013-09-22 02:45:00,54.8,48.4,29.85,NNW,342,0.0,5.0,79,0.00,,CLR,0.00,VWS V14.01,2013-09-22 06:45:00,
2013-09-22 02:47:00,52.5,48.1,29.85,NNW,342,0.0,0.0,85,0.00,,CLR,0.00,VWS V14.01,2013-09-22 06:47:00,
2013-09-22 02:52:00,52.2,47.8,29.85,NNW,342,0.0,0.0,85,0.00,,CLR,0.00,VWS V14.01,2013-09-22 06:52:00,
2013-09-22 02:57:00,52.2,48.2,29.85,NNW,342,0.0,0.0,86,0.00,,CLR,0.00,VWS V14.01,2013-09-22 06:57:00,
2013-09-22 03:00:00,54.4,48.7,29.86,NNW,342,0.0,0.0,81,0.00,,CLR,0.00,VWS V14.01,2013-09-22 07:00:00,
2013-09-22 03:02:00,52.0,48.0,29.85,NNW,342,0.0,0.0,86,0.00,,CLR,0.00,VWS V14.01,2013-09-22 07:02:00,
2013-09-22 03:07:00,52.0,48.0,29.85,NNW,342,0.0,0.0,86,0.00,,CLR,0.00,VWS V14.01,2013-09-22 07:07:00,
2013-09-22 03:12:00,51.9,48.2,29.85,NNW,342,0.0,0.0,87,0.00,,CLR,0.00,VWS V14.01,2013-09-22 07:12:00,
2013-09-22 03:15:00,53.8,48.4,29.85,NNW,342,0.0,0.0,82,0.00,,CLR,0.00,VWS V14.01,2013-09-22 07:15:00,
2013-09-22 03:17:00,51.9,48.2,29.85,NNW,342,0.0,0.0,87,0.00,,CLR,0.00,VWS V14.01,2013-09-22 07:17:00,
2013-09-22 03:22:00,51.7,48.0,29.85,NNW,342,0.0,0.0,87,0.00,,CLR,0.00,VWS V14.01,2013-09-22 07:22:00,
2013-09-22 03:27:00,51.6,47.9,29.85,NNW,342,0.0,0.0,87,0.00,,CLR,0.00,VWS V14.01,2013-09-22 07:27:00,
2013-09-22 03:30:00,53.3,48.3,29.85,NNW,342,0.0,0.0,83,0.00,,CLR,0.00,VWS V14.01,2013-09-22 07:30:00,
2013-09-22 03:32:00,51.4,47.7,29.85,NNW,342,0.0,0.0,87,0.00,,CLR,0.00,VWS V14.01,2013-09-22 07:32:00,
2013-09-22 03:37:00,51.3,47.9,29.85,NNW,342,0.0,0.0,88,0.00,,CLR,0.00,VWS V14.01,2013-09-22 07:37:00,
2013-09-22 03:42:00,51.1,47.7,29.85,NNW,342,0.0,0.0,88,0.00,,CLR,0.00,VWS V14.01,2013-09-22 07:42:00,
2013-09-22 03:45:00,52.6,47.9,29.85,NNW,342,0.0,0.0,84,0.00,,CLR,0.00,VWS V14.01,2013-09-22 07:45:00,
2013-09-22 03:47:00,51.0,47.6,29.86,NNW,342,0.0,0.0,88,0.00,,CLR,0.00,VWS V14.01,2013-09-22 07:47:00,
2013-09-22 03:52:00,50.8,47.7,29.86,NNW,342,0.0,0.0,89,0.00,,CLR,0.00,VWS V14.01,2013-09-22 07:52:00,
2013-09-22 03:57:00,50.5,47.4,29.86,NNW,342,0.0,0.0,89,0.00,,CLR,0.00,VWS V14.01,2013-09-22 07:57:00,
2013-09-22 04:00:00,52.0,48.0,29.85,NNW,342,0.0,0.0,86,0.00,,CLR,0.00,VWS V14.01,2013-09-22 08:00:00,
2013-09-22 04:02:00,50.4,47.3,29.86,NNW,342,0.0,0.0,89,0.00,,CLR,0.00,VWS V14.01,2013-09-22 08:02:00,
2013-09-22 04:07:00,50.1,47.3,29.86,NNW,342,0.0,0.0,90,0.00,,CLR,0.00,VWS V14.01,2013-09-22 08:07:00,
2013-09-22 04:12:00,49.9,47.1,29.86,NNW,342,0.0,0.0,90,0.00,,CLR,0.00,VWS V14.01,2013-09-22 08:12:00,
2013-09-22 04:15:00,51.9,48.2,29.85,NNW,342,0.0,0.0,87,0.00,,CLR,0.00,VWS V14.01,2013-09-22 08:15:00,
2013-09-22 04:17:00,49.8,47.0,29.85,NNW,342,0.0,0.0,90,0.00,,CLR,0.00,VWS V14.01,2013-09-22 08:17:00,
2013-09-22 04:22:00,49.6,46.8,29.85,NNW,342,0.0,0.0,90,0.00,,CLR,0.00,VWS V14.01,2013-09-22 08:22:00,
2013-09-22 04:27:00,49.5,46.7,29.85,NNW,342,0.0,0.0,90,0.00,,CLR,0.00,VWS V14.01,2013-09-22 08:27:00,
2013-09-22 04:30:00,51.6,47.9,29.85,NNW,342,0.0,0.0,87,0.00,,CLR,0.00,VWS V14.01,2013-09-22 08:30:00,
2013-09-22 04:32:00,49.4,46.6,29.86,NNW,342,0.0,0.0,90,0.00,,CLR,0.00,VWS V14.01,2013-09-22 08:32:00,
2013-09-22 04:37:00,49.4,46.9,29.86,NNW,342,0.0,0.0,91,0.00,,CLR,0.00,VWS V14.01,2013-09-22 08:37:00,
2013-09-22 04:42:00,49.2,46.7,29.86,NNW,342,0.0,0.0,91,0.00,,CLR,0.00,VWS V14.01,2013-09-22 08:42:00,
2013-09-22 04:45:00,51.1,47.7,29.86,NNW,342,0.0,0.0,88,0.00,,CLR,0.00,VWS V14.01,2013-09-22 08:45:00,
2013-09-22 04:47:00,49.1,46.6,29.87,NNW,342,0.0,0.0,91,0.00,,CLR,0.00,VWS V14.01,2013-09-22 08:47:00,
2013-09-22 04:52:00,49.1,46.6,29.87,NNW,342,0.0,0.0,91,0.00,,CLR,0.00,VWS V14.01,2013-09-22 08:52:00,
2013-09-22 04:57:00,48.9,46.7,29.87,NNW,342,0.0,0.0,92,0.00,,CLR,0.00,VWS V14.01,2013-09-22 08:57:00,
2013-09-22 05:00:00,50.5,47.4,29.86,NNW,342,0.0,0.0,89,0.00,,CLR,0.00,VWS V14.01,2013-09-22 09:00:00,
2013-09-22 05:02:00,48.9,46.7,29.87,NNW,342,0.0,0.0,92,0.00,,CLR,0.00,VWS V14.01,2013-09-22 09:02:00,
2013-09-22 05:07:00,48.9,46.7,29.87,NNW,342,0.0,0.0,92,0.00,,CLR,0.00,VWS V14.01,2013-09-22 09:07:00,
2013-09-22 05:12:00,48.9,46.7,29.87,NNW,342,0.0,0.0,92,0.00,,CLR,0.00,VWS V14.01,2013-09-22 09:12:00,
2013-09-22 05:15:00,49.9,47.1,29.85,NNW,342,0.0,0.0,90,0.00,,CLR,0.00,VWS V14.01,2013-09-22 09:15:00,
2013-09-22 05:17:00,49.1,47.2,29.88,NNW,342,0.0,0.0,93,0.00,,CLR,0.00,VWS V14.01,2013-09-22 09:17:00,
2013-09-22 05:22:00,48.9,47.0,29.88,NNW,342,0.0,0.0,93,0.00,,CLR,0.00,VWS V14.01,2013-09-22 09:22:00,
2013-09-22 05:27:00,48.9,47.0,29.88,NNW,342,0.0,0.0,93,0.00,,CLR,0.00,VWS V14.01,2013-09-22 09:27:00,
2013-09-22 05:30:00,49.4,46.6,29.86,NNW,342,0.0,0.0,90,0.00,,CLR,0.00,VWS V14.01,2013-09-22 09:30:00,
2013-09-22 05:32:00,48.8,46.9,29.88,NNW,342,0.0,0.0,93,0.00,,CLR,0.00,VWS V14.01,2013-09-22 09:32:00,
2013-09-22 05:37:00,48.8,46.9,29.88,NNW,342,0.0,0.0,93,0.00,,CLR,0.00,VWS V14.01,2013-09-22 09:37:00,
2013-09-22 05:42:00,48.8,46.9,29.88,NNW,342,0.0,0.0,93,0.00,,CLR,0.00,VWS V14.01,2013-09-22 09:42:00,
2013-09-22 05:45:00,49.2,46.7,29.87,NNW,342,0.0,0.0,91,0.00,,CLR,0.00,VWS V14.01,2013-09-22 09:45:00,
2013-09-22 05:47:00,48.6,46.7,29.88,NNW,342,0.0,0.0,93,0.00,,CLR,0.00,VWS V14.01,2013-09-22 09:47:00,
2013-09-22 05:52:00,48.5,46.6,29.88,NNW,342,0.0,0.0,93,0.00,,CLR,0.00,VWS V14.01,2013-09-22 09:52:00,
2013-09-22 05:57:00,48.3,46.4,29.88,NNW,342,0.0,0.0,93,0.00,,CLR,0.00,VWS V14.01,2013-09-22 09:57:00,
2013-09-22 06:00:00,48.9,46.7,29.87,NNW,342,0.0,0.0,92,0.00,,CLR,0.00,VWS V14.01,2013-09-22 10:00:00,
2013-09-22 06:02:00,48.2,46.3,29.89,NNW,342,0.0,0.0,93,0.00,,CLR,0.00,VWS V14.01,2013-09-22 10:02:00,
2013-09-22 06:07:00,48.2,46.3,29.89,NNW,342,0.0,0.0,93,0.00,,CLR,0.00,VWS V14.01,2013-09-22 10:07:00,
2013-09-22 06:12:00,48.0,46.1,29.89,NNW,342,0.0,0.0,93,0.00,,CLR,0.00,VWS V14.01,2013-09-22 10:12:00,
2013-09-22 06:15:00,49.1,47.2,29.88,NNW,342,0.0,0.0,93,0.00,,CLR,0.00,VWS V14.01,2013-09-22 10:15:00,
2013-09-22 06:17:00,47.9,46.0,29.89,NNW,342,0.0,0.0,93,0.00,,CLR,0.00,VWS V14.01,2013-09-22 10:17:00,
2013-09-22 06:22:00,47.7,45.8,29.89,NNW,342,0.0,0.0,93,0.00,,CLR,0.00,VWS V14.01,2013-09-22 10:22:00,
2013-09-22 06:28:00,47.6,45.7,29.89,NNW,342,0.0,0.0,93,0.00,,CLR,0.00,VWS V14.01,2013-09-22 10:28:00,
2013-09-22 06:30:00,48.9,47.0,29.88,NNW,342,0.0,0.0,93,0.00,,CLR,0.00,VWS V14.01,2013-09-22 10:30:00,
2013-09-22 06:32:00,47.4,45.5,29.89,NNW,342,0.0,0.0,93,0.00,,CLR,0.00,VWS V14.01,2013-09-22 10:32:00,
2013-09-22 06:38:00,47.6,46.0,29.89,NNW,342,0.0,0.0,94,0.00,,CLR,0.00,VWS V14.01,2013-09-22 10:38:00,
2013-09-22 06:43:00,47.7,46.1,29.89,NNW,342,0.0,0.0,94,0.00,,CLR,0.00,VWS V14.01,2013-09-22 10:43:00,
2013-09-22 06:45:00,48.8,46.9,29.88,NNW,342,0.0,0.0,93,0.00,,CLR,0.00,VWS V14.01,2013-09-22 10:45:00,
2013-09-22 06:48:00,47.7,46.1,29.90,NNW,342,0.0,0.0,94,0.00,,BKN020,0.00,VWS V14.01,2013-09-22 10:48:00,
2013-09-22 06:53:00,47.9,46.3,29.90,NNW,342,0.0,0.0,94,0.00,,BKN020,0.00,VWS V14.01,2013-09-22 10:53:00,
2013-09-22 06:58:00,47.9,46.3,29.90,NNW,342,0.0,0.0,94,0.00,,BKN020,0.00,VWS V14.01,2013-09-22 10:58:00,
2013-09-22 07:00:00,48.3,46.4,29.89,NNW,342,0.0,0.0,93,0.00,,CLR,0.00,VWS V14.01,2013-09-22 11:00:00,
2013-09-22 07:03:00,47.9,46.3,29.90,NNW,342,0.0,0.0,94,0.00,,BKN022,0.00,VWS V14.01,2013-09-22 11:03:00,
2013-09-22 07:08:00,47.9,46.3,29.90,NNW,342,0.0,0.0,94,0.00,,BKN022,0.00,VWS V14.01,2013-09-22 11:08:00,
2013-09-22 07:13:00,48.0,46.4,29.90,NNW,342,0.0,0.0,94,0.00,,BKN022,0.00,VWS V14.01,2013-09-22 11:13:00,
2013-09-22 07:15:00,48.0,46.1,29.89,NNW,342,0.0,0.0,93,0.00,,CLR,0.00,VWS V14.01,2013-09-22 11:15:00,
2013-09-22 07:18:00,48.2,46.8,29.91,NNW,342,0.0,0.0,95,0.00,,SCT024,0.00,VWS V14.01,2013-09-22 11:18:00,
2013-09-22 07:23:00,48.3,46.9,29.91,NNW,342,0.0,0.0,95,0.00,,SCT024,0.00,VWS V14.01,2013-09-22 11:23:00,
2013-09-22 07:28:00,48.5,47.1,29.91,NNW,342,0.0,0.0,95,0.00,,SCT024,0.00,VWS V14.01,2013-09-22 11:28:00,
2013-09-22 07:30:00,47.6,45.7,29.89,NNW,342,0.0,0.0,93,0.00,,CLR,0.00,VWS V14.01,2013-09-22 11:30:00,
2013-09-22 07:33:00,48.5,47.1,29.92,NNW,342,0.0,0.0,95,0.00,,SCT024,0.00,VWS V14.01,2013-09-22 11:33:00,
2013-09-22 07:38:00,48.6,47.2,29.92,NNW,342,0.0,0.0,95,0.00,,SCT024,0.00,VWS V14.01,2013-09-22 11:38:00,
2013-09-22 07:43:00,48.6,47.2,29.92,NNW,342,0.0,0.0,95,0.00,,SCT024,0.00,VWS V14.01,2013-09-22 11:43:00,
2013-09-22 07:45:00,47.7,46.1,29.90,NNW,342,0.0,0.0,94,0.00,,CLR,0.00,VWS V14.01,2013-09-22 11:45:00,
2013-09-22 07:48:00,48.8,47.4,29.92,NNW,342,0.0,1.0,95,0.00,,SCT024,0.00,VWS V14.01,2013-09-22 11:48:00,
2013-09-22 07:53:00,49.2,47.8,29.92,NNW,342,0.0,1.0,95,0.00,,SCT024,0.00,VWS V14.01,2013-09-22 11:53:00,
2013-09-22 07:58:00,49.6,48.2,29.92,NNW,342,0.0,2.0,95,0.00,,SCT024,0.00,VWS V14.01,2013-09-22 11:58:00,
2013-09-22 08:00:00,47.9,46.3,29.90,NNW,342,0.0,0.0,94,0.00,,CLR,0.00,VWS V14.01,2013-09-22 12:00:00,
2013-09-22 08:03:00,49.8,48.4,29.92,NNW,342,0.0,2.0,95,0.00,,OVC039,0.00,VWS V14.01,2013-09-22 12:03:00,
2013-09-22 08:08:00,50.1,48.7,29.92,NNW,342,0.0,2.0,95,0.00,,OVC039,0.00,VWS V14.01,2013-09-22 12:08:00,
2013-09-22 08:13:00,50.4,49.0,29.92,NNW,342,3.0,3.0,95,0.00,,OVC039,0.00,VWS V14.01,2013-09-22 12:13:00,
2013-09-22 08:15:00,48.0,46.4,29.91,NNW,342,0.0,0.0,94,0.00,,CLR,0.00,VWS V14.01,2013-09-22 12:15:00,
2013-09-22 08:18:00,50.7,49.3,29.93,NNW,342,2.0,3.0,95,0.00,,OVC039,0.00,VWS V14.01,2013-09-22 12:18:00,
2013-09-22 08:23:00,50.8,49.4,29.93,NNW,343,2.0,4.0,95,0.00,,OVC039,0.00,VWS V14.01,2013-09-22 12:23:00,
2013-09-22 08:28:00,51.1,49.7,29.93,North,349,3.0,7.0,95,0.00,,OVC039,0.00,VWS V14.01,2013-09-22 12:28:00,
2013-09-22 08:30:00,48.5,47.1,29.92,NNW,342,0.0,0.0,95,0.00,,CLR,0.00,VWS V14.01,2013-09-22 12:30:00,
2013-09-22 08:33:00,51.3,49.9,29.94,NNW,337,0.0,7.0,95,0.00,,OVC039,0.00,VWS V14.01,2013-09-22 12:33:00,
2013-09-22 08:38:00,51.4,49.7,29.94,NNW,336,2.0,5.0,94,0.00,,OVC039,0.00,VWS V14.01,2013-09-22 12:38:00,
2013-09-22 08:43:00,51.7,50.0,29.94,NNW,337,0.0,3.0,94,0.00,,OVC039,0.00,VWS V14.01,2013-09-22 12:43:00,
2013-09-22 08:45:00,48.6,47.2,29.92,NNW,342,0.0,0.0,95,0.00,,CLR,0.00,VWS V14.01,2013-09-22 12:45:00,
2013-09-22 08:48:00,51.9,49.9,29.94,NNW,340,0.0,6.0,93,0.00,,OVC039,0.00,VWS V14.01,2013-09-22 12:48:00,
2013-09-22 08:53:00,52.0,50.0,29.94,NNW,347,0.0,5.0,93,0.00,,OVC039,0.00,VWS V14.01,2013-09-22 12:53:00,
2013-09-22 08:58:00,52.2,50.2,29.94,NW,326,5.0,5.0,93,0.00,,OVC039,0.00,VWS V14.01,2013-09-22 12:58:00,
2013-09-22 09:00:00,49.6,48.2,29.92,NNW,342,0.0,2.0,95,0.00,,CLR,0.00,VWS V14.01,2013-09-22 13:00:00,
2013-09-22 09:03:00,52.5,50.2,29.94,North,350,0.0,5.0,92,0.00,,OVC043,0.00,VWS V14.01,2013-09-22 13:03:00,
2013-09-22 09:08:00,52.6,50.0,29.94,North,350,2.0,6.0,91,0.00,,OVC043,0.00,VWS V14.01,2013-09-22 13:08:00,
2013-09-22 09:12:00,52.9,50.0,29.94,North,359,3.0,6.0,90,0.00,,OVC043,0.00,VWS V14.01,2013-09-22 13:12:00,
2013-09-22 09:15:00,50.5,49.1,29.93,NNW,342,0.0,3.0,95,0.00,,CLR,0.00,VWS V14.01,2013-09-22 13:15:00,
2013-09-22 09:17:00,53.1,50.2,29.95,NNW,336,0.0,6.0,90,0.00,,OVC043,0.00,VWS V14.01,2013-09-22 13:17:00,
2013-09-22 09:22:00,53.5,50.3,29.95,NNE,14,2.0,7.0,89,0.00,,OVC043,0.00,VWS V14.01,2013-09-22 13:22:00,
2013-09-22 09:27:00,53.9,50.4,29.95,North,357,0.0,7.0,88,0.00,,OVC043,0.00,VWS V14.01,2013-09-22 13:27:00,
2013-09-22 09:30:00,51.1,49.7,29.94,NW,326,2.0,7.0,95,0.00,,CLR,0.00,VWS V14.01,2013-09-22 13:30:00,
2013-09-22 09:32:00,54.2,50.4,29.95,NNE,27,0.0,6.0,87,0.00,,OVC043,0.00,VWS V14.01,2013-09-22 13:32:00,
2013-09-22 09:37:00,54.5,50.4,29.95,NNW,333,0.0,6.0,86,0.00,,OVC043,0.00,VWS V14.01,2013-09-22 13:37:00,
2013-09-22 09:42:00,54.8,50.4,29.95,North,10,0.0,6.0,85,0.00,,OVC043,0.00,VWS V14.01,2013-09-22 13:42:00,
2013-09-22 09:45:00,51.7,50.0,29.94,NNW,339,2.0,6.0,94,0.00,,CLR,0.00,VWS V14.01,2013-09-22 13:45:00,
2013-09-22 09:47:00,55.1,50.4,29.96,NNW,343,0.0,7.0,84,0.00,,OVC043,0.00,VWS V14.01,2013-09-22 13:47:00,
2013-09-22 09:52:00,55.6,50.5,29.96,North,10,0.0,7.0,83,0.00,,OVC043,0.00,VWS V14.01,2013-09-22 13:52:00,
2013-09-22 09:57:00,56.5,51.1,29.96,NNW,344,0.0,8.0,82,0.00,,OVC043,0.00,VWS V14.01,2013-09-22 13:57:00,
2013-09-22 10:00:00,52.3,50.0,29.94,North,353,0.0,5.0,92,0.00,,CLR,0.00,VWS V14.01,2013-09-22 14:00:00,
2013-09-22 10:02:00,56.9,50.8,29.96,NNE,25,1.0,8.0,80,0.00,,OVC043,0.00,VWS V14.01,2013-09-22 14:02:00,
2013-09-22 10:07:00,56.9,50.5,29.96,NE,34,2.0,10.0,79,0.00,,OVC043,0.00,VWS V14.01,2013-09-22 14:07:00,
2013-09-22 10:12:00,57.0,50.2,29.96,North,353,5.0,10.0,78,0.00,,OVC043,0.00,VWS V14.01,2013-09-22 14:12:00,
2013-09-22 10:15:00,52.9,50.0,29.95,North,3,0.0,6.0,90,0.00,,CLR,0.00,VWS V14.01,2013-09-22 14:15:00,
2013-09-22 10:17:00,57.3,50.2,29.97,NNW,332,5.0,10.0,77,0.00,,OVC043,0.00,VWS V14.01,2013-09-22 14:17:00,
2013-09-22 10:22:00,57.3,50.5,29.97,North,7,5.0,10.0,78,0.00,,OVC043,0.00,VWS V14.01,2013-09-22 14:22:00,
2013-09-22 10:27:00,57.6,50.5,29.97,North,10,0.0,8.0,77,0.00,,OVC043,0.00,VWS V14.01,2013-09-22 14:27:00,
2013-09-22 10:30:00,54.1,50.6,29.95,North,354,2.0,6.0,88,0.00,,CLR,0.00,VWS V14.01,2013-09-22 14:30:00,
2013-09-22 10:32:00,58.7,51.5,29.97,NE,41,8.0,8.0,77,0.00,,OVC043,0.00,VWS V14.01,2013-09-22 14:32:00,
2013-09-22 10:37:00,58.9,50.6,29.97,NE,47,3.0,11.0,74,0.00,,OVC043,0.00,VWS V14.01,2013-09-22 14:37:00,
2013-09-22 10:42:00,58.7,50.1,29.97,NNW,333,2.0,7.0,73,0.00,,OVC043,0.00,VWS V14.01,2013-09-22 14:42:00,
2013-09-22 10:45:00,55.0,50.6,29.96,NNW,342,1.0,7.0,85,0.00,,CLR,0.00,VWS V14.01,2013-09-22 14:45:00,
2013-09-22 10:47:00,58.9,50.6,29.97,North,352,0.0,7.0,74,0.00,,OVC043,0.00,VWS V14.01,2013-09-22 14:47:00,
2013-09-22 10:52:00,59.0,50.4,29.97,NNE,32,5.0,10.0,73,0.00,,OVC043,0.00,VWS V14.01,2013-09-22 14:52:00,
2013-09-22 10:57:00,59.6,50.6,29.97,NW,320,9.0,9.0,72,0.00,,OVC043,0.00,VWS V14.01,2013-09-22 14:57:00,
2013-09-22 11:00:00,56.7,50.9,29.96,NNW,332,1.0,8.0,81,0.00,,CLR,0.00,VWS V14.01,2013-09-22 15:00:00,
2013-09-22 11:02:00,59.9,50.5,29.97,NNE,28,2.0,9.0,71,0.00,,BKN041,0.00,VWS V14.01,2013-09-22 15:02:00,
2013-09-22 11:07:00,60.2,50.4,29.97,NNE,17,0.0,7.0,70,0.00,,BKN041,0.00,VWS V14.01,2013-09-22 15:07:00,
2013-09-22 11:12:00,61.0,50.8,29.97,NNW,342,7.0,7.0,69,0.00,,BKN041,0.00,VWS V14.01,2013-09-22 15:12:00,
2013-09-22 11:15:00,57.3,50.8,29.97,NNW,337,7.0,10.0,79,0.00,,CLR,0.00,VWS V14.01,2013-09-22 15:15:00,
2013-09-22 11:17:00,61.0,50.8,29.97,NNE,21,5.0,8.0,69,0.00,,BKN041,0.00,VWS V14.01,2013-09-22 15:17:00,
2013-09-22 11:22:00,61.3,51.1,29.97,North,10,4.0,6.0,69,0.00,,BKN041,0.00,VWS V14.01,2013-09-22 15:22:00,
2013-09-22 11:27:00,61.3,49.9,29.97,WNW,284,7.0,10.0,66,0.00,,BKN041,0.00,VWS V14.01,2013-09-22 15:27:00,
2013-09-22 11:30:00,58.1,51.3,29.97,NNE,25,0.0,8.0,78,0.00,,CLR,0.00,VWS V14.01,2013-09-22 15:30:00,
2013-09-22 11:32:00,60.9,49.9,29.97,NNW,342,0.0,10.0,67,0.00,,BKN041,0.00,VWS V14.01,2013-09-22 15:32:00,
2013-09-22 11:37:00,60.4,48.6,29.97,NNW,342,0.0,3.0,65,0.00,,BKN041,0.00,VWS V14.01,2013-09-22 15:37:00,
2013-09-22 11:42:00,61.0,50.8,29.97,NNW,342,0.0,3.0,69,0.00,,BKN041,0.00,VWS V14.01,2013-09-22 15:42:00,
2013-09-22 11:45:00,58.7,50.5,29.97,North,0,2.0,7.0,74,0.00,,CLR,0.00,VWS V14.01,2013-09-22 15:45:00,
2013-09-22 11:48:00,62.3,49.6,29.96,North,0,0.0,8.0,63,0.00,,BKN041,0.00,VWS V14.01,2013-09-22 15:48:00,
2013-09-22 11:53:00,63.1,50.3,29.96,NNE,27,0.0,8.0,63,0.00,,BKN041,0.00,VWS V14.01,2013-09-22 15:53:00,
2013-09-22 11:58:00,63.4,49.7,29.96,NNE,18,0.0,11.0,61,0.00,,BKN041,0.00,VWS V14.01,2013-09-22 15:58:00,
2013-09-22 12:00:00,59.8,50.8,29.97,NW,323,4.0,9.0,72,0.00,,CLR,0.00,VWS V14.01,2013-09-22 16:00:00,
2013-09-22 12:03:00,63.2,49.1,29.96,NNW,342,8.0,11.0,60,0.00,,OVC035,0.00,VWS V14.01,2013-09-22 16:03:00,
2013-09-22 12:08:00,62.9,51.4,29.96,NNW,329,5.0,10.0,66,0.00,,OVC035,0.00,VWS V14.01,2013-09-22 16:08:00,
2013-09-22 12:13:00,63.1,50.3,29.96,North,359,0.0,10.0,63,0.00,,OVC035,0.00,VWS V14.01,2013-09-22 16:13:00,
2013-09-22 12:15:00,61.0,50.8,29.97,NNW,343,0.0,8.0,69,0.00,,CLR,0.00,VWS V14.01,2013-09-22 16:15:00,
2013-09-22 12:18:00,63.2,49.1,29.96,NNE,25,2.0,7.0,60,0.00,,OVC035,0.00,VWS V14.01,2013-09-22 16:18:00,
2013-09-22 12:23:00,63.7,49.6,29.96,NNW,333,1.0,7.0,60,0.00,,OVC035,0.00,VWS V14.01,2013-09-22 16:23:00,
2013-09-22 12:28:00,64.3,50.6,29.96,NNW,342,6.0,9.0,61,0.00,,OVC035,0.00,VWS V14.01,2013-09-22 16:28:00,
2013-09-22 12:30:00,61.0,49.6,29.97,North,1,0.0,10.0,66,0.00,,CLR,0.00,VWS V14.01,2013-09-22 16:30:00,
2013-09-22 12:33:00,64.5,50.3,29.96,NNW,329,0.0,9.0,60,0.00,,OVC035,0.00,VWS V14.01,2013-09-22 16:33:00,
2013-09-22 12:38:00,65.2,50.5,29.96,NNE,14,0.0,6.0,59,0.00,,OVC035,0.00,VWS V14.01,2013-09-22 16:38:00,
2013-09-22 12:43:00,64.5,49.4,29.96,North,0,2.0,8.0,58,0.00,,OVC035,0.00,VWS V14.01,2013-09-22 16:43:00,
2013-09-22 12:45:00,61.6,50.2,29.96,NNE,20,0.0,5.0,66,0.00,,CLR,0.00,VWS V14.01,2013-09-22 16:45:00,
2013-09-22 12:48:00,63.7,49.6,29.96,NNW,333,2.0,8.0,60,0.00,,OVC035,0.00,VWS V14.01,2013-09-22 16:48:00,
2013-09-22 12:53:00,62.7,49.1,29.96,NNW,332,5.0,8.0,61,0.00,,OVC035,0.00,VWS V14.01,2013-09-22 16:53:00,
2013-09-22 12:58:00,62.6,49.4,29.96,North,8,1.0,7.0,62,0.00,,OVC035,0.00,VWS V14.01,2013-09-22 16:58:00,
2013-09-22 13:00:00,63.5,49.8,29.96,North,8,0.0,11.0,61,0.00,,CLR,0.00,VWS V14.01,2013-09-22 17:00:00,
2013-09-22 13:03:00,63.4,50.6,29.96,ENE,71,0.0,5.0,63,0.00,,BKN039,0.00,VWS V14.01,2013-09-22 17:03:00,
2013-09-22 13:08:00,63.9,47.9,29.96,NNE,20,0.0,6.0,56,0.00,,BKN039,0.00,VWS V14.01,2013-09-22 17:08:00,
2013-09-22 13:13:00,63.7,48.2,29.96,North,353,5.0,6.0,57,0.00,,BKN039,0.00,VWS V14.01,2013-09-22 17:13:00,
2013-09-22 13:15:00,63.2,49.5,29.96,North,0,3.0,10.0,61,0.00,,CLR,0.00,VWS V14.01,2013-09-22 17:15:00,
2013-09-22 13:18:00,63.1,48.1,29.96,NNW,336,4.0,6.0,58,0.00,,BKN039,0.00,VWS V14.01,2013-09-22 17:18:00,
2013-09-22 13:23:00,62.7,48.2,29.96,NNE,17,0.0,6.0,59,0.00,,BKN039,0.00,VWS V14.01,2013-09-22 17:23:00,
2013-09-22 13:28:00,62.6,48.1,29.96,NNE,16,0.0,5.0,59,0.00,,BKN039,0.00,VWS V14.01,2013-09-22 17:28:00,
2013-09-22 13:30:00,64.5,49.4,29.96,NNW,344,0.0,9.0,58,0.00,,CLR,0.00,VWS V14.01,2013-09-22 17:30:00,
2013-09-22 13:33:00,62.6,47.6,29.96,North,350,0.0,6.0,58,0.00,,BKN039,0.00,VWS V14.01,2013-09-22 17:33:00,
2013-09-22 13:38:00,63.2,47.7,29.96,NNE,17,0.0,6.0,57,0.00,,BKN039,0.00,VWS V14.01,2013-09-22 17:38:00,
2013-09-22 13:43:00,63.4,47.9,29.96,WNW,302,0.0,5.0,57,0.00,,BKN039,0.00,VWS V14.01,2013-09-22 17:43:00,
2013-09-22 13:45:00,64.2,49.6,29.96,North,0,0.0,8.0,59,0.00,,CLR,0.00,VWS V14.01,2013-09-22 17:45:00,
2013-09-22 13:48:00,63.2,47.3,29.96,North,350,4.0,7.0,56,0.00,,BKN039,0.00,VWS V14.01,2013-09-22 17:48:00,
2013-09-22 13:53:00,62.9,47.5,29.96,NNW,339,2.0,7.0,57,0.00,,BKN039,0.00,VWS V14.01,2013-09-22 17:53:00,
2013-09-22 13:58:00,62.7,47.7,29.96,North,0,0.0,7.0,58,0.00,,BKN039,0.00,VWS V14.01,2013-09-22 17:58:00,
2013-09-22 14:00:00,62.7,49.5,29.96,North,359,3.0,7.0,62,0.00,,CLR,0.00,VWS V14.01,2013-09-22 18:00:00,
2013-09-22 14:03:00,62.9,47.0,29.96,North,349,1.0,6.0,56,0.00,,OVC041,0.00,VWS V14.01,2013-09-22 18:03:00,
2013-09-22 14:08:00,63.2,47.7,29.96,NNE,21,0.0,6.0,57,0.00,,OVC041,0.00,VWS V14.01,2013-09-22 18:08:00,
2013-09-22 14:13:00,63.4,48.8,29.96,ENE,68,0.0,5.0,59,0.00,,OVC041,0.00,VWS V14.01,2013-09-22 18:13:00,
2013-09-22 14:15:00,63.5,48.5,29.96,North,357,3.0,6.0,58,0.00,,CLR,0.00,VWS V14.01,2013-09-22 18:15:00,
2013-09-22 14:18:00,63.9,49.3,29.96,North,353,7.0,8.0,59,0.00,,OVC041,0.00,VWS V14.01,2013-09-22 18:18:00,
2013-09-22 14:23:00,64.3,46.8,29.96,NNW,344,2.0,8.0,53,0.00,,OVC041,0.00,VWS V14.01,2013-09-22 18:23:00,
2013-09-22 14:28:00,64.8,47.3,29.96,WSW,254,0.0,7.0,53,0.00,,OVC041,0.00,VWS V14.01,2013-09-22 18:28:00,
2013-09-22 14:30:00,62.6,47.6,29.96,North,11,0.0,5.0,58,0.00,,CLR,0.00,VWS V14.01,2013-09-22 18:30:00,
2013-09-22 14:33:00,65.6,47.5,29.96,SW,232,0.0,7.0,52,0.00,,OVC041,0.00,VWS V14.01,2013-09-22 18:33:00,
2013-09-22 14:38:00,65.8,47.7,29.96,NNW,337,6.0,12.0,52,0.00,,OVC041,0.00,VWS V14.01,2013-09-22 18:38:00,
2013-09-22 14:43:00,65.0,48.0,29.96,ENE,61,0.0,12.0,54,0.00,,OVC041,0.00,VWS V14.01,2013-09-22 18:43:00,
2013-09-22 14:45:00,63.4,47.5,29.96,NW,311,0.0,5.0,56,0.00,,CLR,0.00,VWS V14.01,2013-09-22 18:45:00,
2013-09-22 14:48:00,64.5,47.5,29.96,NNE,21,0.0,10.0,54,0.00,,OVC041,0.00,VWS V14.01,2013-09-22 18:48:00,
2013-09-22 14:53:00,64.2,47.7,29.96,NNE,23,5.0,6.0,55,0.00,,OVC041,0.00,VWS V14.01,2013-09-22 18:53:00,
2013-09-22 14:58:00,64.0,48.0,29.96,NNE,23,1.0,5.0,56,0.00,,OVC041,0.00,VWS V14.01,2013-09-22 18:58:00,
2013-09-22 15:00:00,62.7,47.7,29.96,North,0,1.0,7.0,58,0.00,,CLR,0.00,VWS V14.01,2013-09-22 19:00:00,
2013-09-22 15:03:00,64.0,46.0,29.95,North,11,0.0,5.0,52,0.00,,BKN043,0.00,VWS V14.01,2013-09-22 19:03:00,
2013-09-22 15:08:00,64.7,48.7,29.95,North,11,0.0,2.0,56,0.00,,BKN043,0.00,VWS V14.01,2013-09-22 19:08:00,
2013-09-22 15:13:00,65.6,48.0,29.95,North,0,3.0,3.0,53,0.00,,BKN043,0.00,VWS V14.01,2013-09-22 19:13:00,
2013-09-22 15:15:00,63.4,47.5,29.96,North,0,1.0,5.0,56,0.00,,CLR,0.00,VWS V14.01,2013-09-22 19:15:00,
2013-09-22 15:18:00,66.0,48.4,29.95,NNE,27,0.0,5.0,53,0.00,,BKN043,0.00,VWS V14.01,2013-09-22 19:18:00,
2013-09-22 15:23:00,65.5,47.4,29.95,NNE,25,2.0,5.0,52,0.00,,BKN043,0.00,VWS V14.01,2013-09-22 19:23:00,
2013-09-22 15:28:00,65.3,48.2,29.95,North,354,0.0,5.0,54,0.00,,BKN043,0.00,VWS V14.01,2013-09-22 19:28:00,
2013-09-22 15:30:00,65.2,48.2,29.96,WSW,254,0.0,7.0,54,0.00,,CLR,0.00,VWS V14.01,2013-09-22 19:30:00,
2013-09-22 15:33:00,65.5,48.4,29.95,NNW,344,2.0,5.0,54,0.00,,BKN043,0.00,VWS V14.01,2013-09-22 19:33:00,
2013-09-22 15:38:00,65.8,46.7,29.95,NW,305,3.0,6.0,50,0.00,,BKN043,0.00,VWS V14.01,2013-09-22 19:38:00,
2013-09-22 15:43:00,66.3,46.6,29.95,North,350,7.0,7.0,49,0.00,,BKN043,0.00,VWS V14.01,2013-09-22 19:43:00,
2013-09-22 15:45:00,64.8,46.8,29.96,North,8,0.0,12.0,52,0.00,,CLR,0.00,VWS V14.01,2013-09-22 19:45:00,
2013-09-22 15:48:00,66.9,47.7,29.95,North,357,0.0,7.0,50,0.00,,BKN043,0.00,VWS V14.01,2013-09-22 19:48:00,
2013-09-22 15:53:00,67.4,47.6,29.95,NE,34,0.0,5.0,49,0.00,,BKN043,0.00,VWS V14.01,2013-09-22 19:53:00,
2013-09-22 15:58:00,67.3,47.0,29.95,NNE,32,4.0,6.0,48,0.00,,BKN043,0.00,VWS V14.01,2013-09-22 19:58:00,
2013-09-22 16:00:00,64.0,47.5,29.95,North,11,0.0,5.0,55,0.00,,CLR,0.00,VWS V14.01,2013-09-22 20:00:00,
2013-09-22 16:03:00,66.6,47.9,29.95,NNE,18,0.0,6.0,51,0.00,,BKN047,0.00,VWS V14.01,2013-09-22 20:03:00,
2013-09-22 16:09:00,66.0,46.8,29.95,NNW,343,0.0,6.0,50,0.00,,BKN047,0.00,VWS V14.01,2013-09-22 20:09:00,
2013-09-22 16:14:00,66.1,45.9,29.95,NNW,347,0.0,6.0,48,0.00,,BKN047,0.00,VWS V14.01,2013-09-22 20:14:00,
2013-09-22 16:15:00,65.8,47.7,29.95,North,0,0.0,3.0,52,0.00,,CLR,0.00,VWS V14.01,2013-09-22 20:15:00,
2013-09-22 16:19:00,66.6,45.8,29.95,NNW,347,0.0,4.0,47,0.00,,BKN047,0.00,VWS V14.01,2013-09-22 20:19:00,
2013-09-22 16:24:00,66.8,47.0,29.95,NNW,347,0.0,4.0,49,0.00,,BKN047,0.00,VWS V14.01,2013-09-22 20:24:00,
2013-09-22 16:29:00,67.4,48.1,29.95,NNE,30,0.0,7.0,50,0.00,,BKN047,0.00,VWS V14.01,2013-09-22 20:29:00,
2013-09-22 16:30:00,65.3,47.8,29.95,North,357,0.0,5.0,53,0.00,,CLR,0.00,VWS V14.01,2013-09-22 20:30:00,
2013-09-22 16:34:00,67.3,47.0,29.94,NNW,347,5.0,7.0,48,0.00,,BKN047,0.00,VWS V14.01,2013-09-22 20:34:00,
2013-09-22 16:39:00,66.8,47.6,29.94,NNW,335,0.0,6.0,50,0.00,,BKN047,0.00,VWS V14.01,2013-09-22 20:39:00,
2013-09-22 16:44:00,66.4,46.7,29.94,North,0,0.0,3.0,49,0.00,,BKN047,0.00,VWS V14.01,2013-09-22 20:44:00,
2013-09-22 16:45:00,66.4,46.1,29.95,North,354,0.0,7.0,48,0.00,,CLR,0.00,VWS V14.01,2013-09-22 20:45:00,
2013-09-22 16:49:00,66.4,46.7,29.95,NW,309,0.0,5.0,49,0.00,,BKN047,0.00,VWS V14.01,2013-09-22 20:49:00,
2013-09-22 16:54:00,66.1,45.3,29.95,North,0,5.0,6.0,47,0.00,,BKN047,0.00,VWS V14.01,2013-09-22 20:54:00,
2013-09-22 16:59:00,66.4,46.7,29.95,NE,45,0.0,6.0,49,0.00,,BKN047,0.00,VWS V14.01,2013-09-22 20:59:00,
2013-09-22 17:00:00,67.1,46.8,29.95,NNE,32,0.0,6.0,48,0.00,,CLR,0.00,VWS V14.01,2013-09-22 21:00:00,
2013-09-22 17:04:00,66.6,45.8,29.94,NNW,337,0.0,7.0,47,0.00,,CLR,0.00,VWS V14.01,2013-09-22 21:04:00,
2013-09-22 17:09:00,66.0,45.8,29.94,NNW,337,0.0,7.0,48,0.00,,CLR,0.00,VWS V14.01,2013-09-22 21:09:00,
2013-09-22 17:14:00,65.8,46.1,29.94,NNW,337,0.0,3.0,49,0.00,,CLR,0.00,VWS V14.01,2013-09-22 21:14:00,
2013-09-22 17:15:00,66.3,46.0,29.95,NNW,347,0.0,5.0,48,0.00,,CLR,0.00,VWS V14.01,2013-09-22 21:15:00,
2013-09-22 17:19:00,66.1,46.4,29.94,North,352,0.0,4.0,49,0.00,,CLR,0.00,VWS V14.01,2013-09-22 21:19:00,
2013-09-22 17:24:00,66.3,46.6,29.94,North,0,0.0,7.0,49,0.00,,CLR,0.00,VWS V14.01,2013-09-22 21:24:00,
2013-09-22 17:29:00,66.4,45.6,29.94,NNE,21,0.0,6.0,47,0.00,,CLR,0.00,VWS V14.01,2013-09-22 21:29:00,
2013-09-22 17:30:00,67.4,48.1,29.94,NE,45,4.0,7.0,50,0.00,,CLR,0.00,VWS V14.01,2013-09-22 21:30:00,
2013-09-22 17:34:00,66.4,46.1,29.94,NNE,32,0.0,2.0,48,0.00,,CLR,0.00,VWS V14.01,2013-09-22 21:34:00,
2013-09-22 17:39:00,66.6,45.8,29.94,North,353,0.0,4.0,47,0.00,,CLR,0.00,VWS V14.01,2013-09-22 21:39:00,
2013-09-22 17:44:00,66.8,46.5,29.95,North,0,0.0,4.0,48,0.00,,CLR,0.00,VWS V14.01,2013-09-22 21:44:00,
2013-09-22 17:45:00,66.4,47.7,29.95,North,0,0.0,3.0,51,0.00,,CLR,0.00,VWS V14.01,2013-09-22 21:45:00,
2013-09-22 17:49:00,66.6,46.3,29.95,NNW,347,0.0,2.0,48,0.00,,CLR,0.00,VWS V14.01,2013-09-22 21:49:00,
2013-09-22 17:54:00,66.3,47.1,29.95,North,357,0.0,2.0,50,0.00,,CLR,0.00,VWS V14.01,2013-09-22 21:54:00,
2013-09-22 18:00:00,65.5,46.9,29.95,NE,38,0.0,6.0,51,0.00,,CLR,0.00,VWS V14.01,2013-09-22 22:00:00,
2013-09-22 18:05:00,64.7,47.2,29.95,NNE,14,0.0,6.0,53,0.00,,FEW048,0.00,VWS V14.01,2013-09-22 22:05:00,
2013-09-22 18:10:00,64.0,47.0,29.95,North,359,0.0,4.0,54,0.00,,FEW048,0.00,VWS V14.01,2013-09-22 22:10:00,
2013-09-22 18:15:00,63.4,47.0,29.96,NNE,23,0.0,2.0,55,0.00,,FEW048,0.00,VWS V14.01,2013-09-22 22:15:00,
2013-09-22 18:20:00,62.9,47.0,29.96,NNE,23,0.0,0.0,56,0.00,,FEW048,0.00,VWS V14.01,2013-09-22 22:20:00,
2013-09-22 18:25:00,62.6,46.7,29.96,NNE,23,0.0,0.0,56,0.00,,FEW048,0.00,VWS V14.01,2013-09-22 22:25:00,
2013-09-22 18:30:00,62.3,46.0,29.96,NNE,20,0.0,1.0,55,0.00,,FEW048,0.00,VWS V14.01,2013-09-22 22:30:00,
2013-09-22 18:35:00,62.1,46.7,29.96,NNE,20,0.0,0.0,57,0.00,,FEW048,0.00,VWS V14.01,2013-09-22 22:35:00,
2013-09-22 18:40:00,61.8,46.4,29.96,NW,306,0.0,2.0,57,0.00,,FEW048,0.00,VWS V14.01,2013-09-22 22:40:00,
2013-09-22 18:45:00,61.3,46.9,29.97,NNE,25,0.0,3.0,59,0.00,,FEW048,0.00,VWS V14.01,2013-09-22 22:45:00,
2013-09-22 18:50:00,61.0,47.0,29.97,NNE,25,0.0,0.0,60,0.00,,FEW048,0.00,VWS V14.01,2013-09-22 22:50:00,
2013-09-22 18:55:00,60.5,47.0,29.97,North,0,0.0,2.0,61,0.00,,FEW048,0.00,VWS V14.01,2013-09-22 22:55:00,
2013-09-22 19:00:00,60.2,46.7,29.98,North,0,0.0,2.0,61,0.00,,FEW048,0.00,VWS V14.01,2013-09-22 23:00:00,
2013-09-22 19:05:00,59.8,46.8,29.98,North,0,0.0,0.0,62,0.00,,CLR,0.00,VWS V14.01,2013-09-22 23:05:00,
2013-09-22 19:10:00,59.3,46.7,29.98,North,0,0.0,0.0,63,0.00,,CLR,0.00,VWS V14.01,2013-09-22 23:10:00,
2013-09-22 19:15:00,58.9,46.8,29.98,North,0,0.0,0.0,64,0.00,,CLR,0.00,VWS V14.01,2013-09-22 23:15:00,
2013-09-22 19:20:00,58.6,46.9,29.98,North,0,0.0,0.0,65,0.00,,CLR,0.00,VWS V14.01,2013-09-22 23:20:00,
2013-09-22 19:25:00,58.1,46.8,29.98,North,0,0.0,0.0,66,0.00,,CLR,0.00,VWS V14.01,2013-09-22 23:25:00,
2013-09-22 19:30:00,57.8,46.9,29.98,North,0,0.0,0.0,67,0.00,,CLR,0.00,VWS V14.01,2013-09-22 23:30:00,
2013-09-22 19:35:00,57.3,46.8,29.98,North,0,0.0,0.0,68,0.00,,CLR,0.00,VWS V14.01,2013-09-22 23:35:00,
2013-09-22 19:40:00,57.0,46.9,29.98,North,0,0.0,0.0,69,0.00,,CLR,0.00,VWS V14.01,2013-09-22 23:40:00,
2013-09-22 19:45:00,56.6,47.3,29.98,North,0,0.0,0.0,71,0.00,,CLR,0.00,VWS V14.01,2013-09-22 23:45:00,
2013-09-22 19:50:00,56.3,47.4,29.98,North,0,0.0,0.0,72,0.00,,CLR,0.00,VWS V14.01,2013-09-22 23:50:00,
2013-09-22 19:55:00,56.0,47.5,29.98,North,0,0.0,0.0,73,0.00,,CLR,0.00,VWS V14.01,2013-09-22 23:55:00,
2013-09-22 20:00:00,55.7,47.5,29.99,North,0,0.0,0.0,74,0.00,,CLR,0.00,VWS V14.01,2013-09-23 00:00:00,
2013-09-22 20:05:00,55.3,47.5,29.99,North,0,0.0,0.0,75,0.00,,CLR,0.00,VWS V14.01,2013-09-23 00:05:00,
2013-09-22 20:10:00,54.8,47.0,29.99,North,0,0.0,0.0,75,0.00,,CLR,0.00,VWS V14.01,2013-09-23 00:10:00,
2013-09-22 20:15:00,54.4,47.0,30.00,North,0,0.0,0.0,76,0.00,,CLR,0.00,VWS V14.01,2013-09-23 00:15:00,
2013-09-22 20:20:00,53.9,46.9,30.00,North,0,0.0,0.0,77,0.00,,CLR,0.00,VWS V14.01,2013-09-23 00:20:00,
2013-09-22 20:25:00,53.6,46.6,30.00,North,0,0.0,0.0,77,0.00,,CLR,0.00,VWS V14.01,2013-09-23 00:25:00,
2013-09-22 20:30:00,53.3,46.6,30.00,North,0,0.0,0.0,78,0.00,,CLR,0.00,VWS V14.01,2013-09-23 00:30:00,
2013-09-22 20:35:00,53.1,46.8,30.00,North,0,0.0,0.0,79,0.00,,CLR,0.00,VWS V14.01,2013-09-23 00:35:00,
2013-09-22 20:40:00,52.8,46.8,30.00,North,0,0.0,0.0,80,0.00,,CLR,0.00,VWS V14.01,2013-09-23 00:40:00,
2013-09-22 20:45:00,52.5,46.5,30.01,North,0,0.0,0.0,80,0.00,,CLR,0.00,VWS V14.01,2013-09-23 00:45:00,
2013-09-22 20:50:00,52.3,46.7,30.01,North,0,0.0,0.0,81,0.00,,CLR,0.00,VWS V14.01,2013-09-23 00:50:00,
2013-09-22 20:55:00,52.0,46.4,30.01,North,0,0.0,0.0,81,0.00,,CLR,0.00,VWS V14.01,2013-09-23 00:55:00,
2013-09-22 21:00:00,51.9,46.3,30.01,North,0,0.0,0.0,81,0.00,,CLR,0.00,VWS V14.01,2013-09-23 01:00:00,
2013-09-22 21:05:00,51.7,46.4,30.01,North,0,0.0,0.0,82,0.00,,CLR,0.00,VWS V14.01,2013-09-23 01:05:00,
2013-09-22 21:10:00,51.4,46.1,30.01,North,0,0.0,0.0,82,0.00,,CLR,0.00,VWS V14.01,2013-09-23 01:10:00,
2013-09-22 21:15:00,51.3,46.3,30.01,North,0,0.0,0.0,83,0.00,,CLR,0.00,VWS V14.01,2013-09-23 01:15:00,
2013-09-22 21:20:00,51.0,46.3,30.01,North,0,0.0,0.0,84,0.00,,CLR,0.00,VWS V14.01,2013-09-23 01:20:00,
2013-09-22 21:25:00,50.8,46.2,30.01,North,0,0.0,0.0,84,0.00,,CLR,0.00,VWS V14.01,2013-09-23 01:25:00,
2013-09-22 21:30:00,50.5,45.8,30.01,North,0,0.0,0.0,84,0.00,,CLR,0.00,VWS V14.01,2013-09-23 01:30:00,
2013-09-22 21:35:00,50.4,46.1,30.01,North,0,0.0,0.0,85,0.00,,CLR,0.00,VWS V14.01,2013-09-23 01:35:00,
2013-09-22 21:40:00,50.1,45.8,30.01,North,0,0.0,0.0,85,0.00,,CLR,0.00,VWS V14.01,2013-09-23 01:40:00,
2013-09-22 21:45:00,49.9,45.9,30.02,North,0,0.0,0.0,86,0.00,,CLR,0.00,VWS V14.01,2013-09-23 01:45:00,
2013-09-22 21:50:00,49.8,45.8,30.02,North,0,0.0,0.0,86,0.00,,CLR,0.00,VWS V14.01,2013-09-23 01:50:00,
2013-09-22 21:55:00,49.8,45.8,30.02,North,0,0.0,0.0,86,0.00,,CLR,0.00,VWS V14.01,2013-09-23 01:55:00,
2013-09-22 22:00:00,49.5,45.5,30.02,North,0,0.0,0.0,86,0.00,,CLR,0.00,VWS V14.01,2013-09-23 02:00:00,
2013-09-22 22:05:00,49.4,45.7,30.02,North,0,0.0,0.0,87,0.00,,CLR,0.00,VWS V14.01,2013-09-23 02:05:00,
2013-09-22 22:10:00,49.4,45.7,30.02,North,0,0.0,0.0,87,0.00,,CLR,0.00,VWS V14.01,2013-09-23 02:10:00,
2013-09-22 22:15:00,49.2,45.5,30.02,North,0,0.0,0.0,87,0.00,,CLR,0.00,VWS V14.01,2013-09-23 02:15:00,
2013-09-22 22:20:00,49.2,45.5,30.02,North,0,0.0,0.0,87,0.00,,CLR,0.00,VWS V14.01,2013-09-23 02:20:00,
2013-09-22 22:25:00,49.1,45.4,30.02,North,0,0.0,0.0,87,0.00,,CLR,0.00,VWS V14.01,2013-09-23 02:25:00,
2013-09-22 22:30:00,49.1,45.4,30.03,North,0,0.0,0.0,87,0.00,,CLR,0.00,VWS V14.01,2013-09-23 02:30:00,
2013-09-22 22:35:00,49.1,45.4,30.03,North,0,0.0,0.0,87,0.00,,CLR,0.00,VWS V14.01,2013-09-23 02:35:00,
2013-09-22 22:40:00,48.9,45.2,30.03,North,0,0.0,0.0,87,0.00,,CLR,0.00,VWS V14.01,2013-09-23 02:40:00,
2013-09-22 22:45:00,48.9,45.5,30.03,North,0,0.0,0.0,88,0.00,,CLR,0.00,VWS V14.01,2013-09-23 02:45:00,
2013-09-22 22:50:00,48.8,45.4,30.03,North,0,0.0,0.0,88,0.00,,CLR,0.00,VWS V14.01,2013-09-23 02:50:00,
2013-09-22 22:55:00,48.6,45.2,30.03,North,0,0.0,0.0,88,0.00,,CLR,0.00,VWS V14.01,2013-09-23 02:55:00,
2013-09-22 23:00:00,48.6,45.2,30.03,North,0,0.0,0.0,88,0.00,,CLR,0.00,VWS V14.01,2013-09-23 03:00:00,
2013-09-22 23:05:00,48.5,45.1,30.03,North,0,0.0,0.0,88,0.00,,CLR,0.00,VWS V14.01,2013-09-23 03:05:00,
2013-09-22 23:10:00,48.2,44.8,30.03,North,0,0.0,0.0,88,0.00,,CLR,0.00,VWS V14.01,2013-09-23 03:10:00,
2013-09-22 23:15:00,48.0,44.6,30.03,North,0,0.0,0.0,88,0.00,,CLR,0.00,VWS V14.01,2013-09-23 03:15:00,
2013-09-22 23:19:00,48.0,44.9,30.03,North,0,0.0,0.0,89,0.00,,CLR,0.00,VWS V14.01,2013-09-23 03:19:00,
2013-09-22 23:25:00,47.9,44.8,30.03,North,0,0.0,0.0,89,0.00,,CLR,0.00,VWS V14.01,2013-09-23 03:25:00,
2013-09-22 23:30:00,47.9,44.8,30.03,North,0,0.0,0.0,89,0.00,,CLR,0.00,VWS V14.01,2013-09-23 03:30:00,
2013-09-22 23:35:00,47.9,44.8,30.03,North,0,0.0,0.0,89,0.00,,CLR,0.00,VWS V14.01,2013-09-23 03:35:00,
2013-09-22 23:40:00,47.7,44.6,30.03,North,0,0.0,0.0,89,0.00,,CLR,0.00,VWS V14.01,2013-09-23 03:40:00,
2013-09-22 23:45:00,47.6,44.5,30.03,North,0,0.0,0.0,89,0.00,,CLR,0.00,VWS V14.01,2013-09-23 03:45:00,
2013-09-22 23:50:00,47.6,44.5,30.03,North,0,0.0,0.0,89,0.00,,CLR,0.00,VWS V14.01,2013-09-23 03:50:00,
2013-09-22 23:55:00,47.4,44.3,30.03,North,0,0.0,0.0,89,0.00,,CLR,0.00,VWS V14.01,2013-09-23 03:55:00,